createdAt,value
2018-09-04T00:01:10.191Z,101745.14
2018-09-04T00:03:48.590Z,101744.78
2018-09-04T00:06:26.210Z,101751.95
2018-09-04T00:09:04.117Z,101748.48
2018-09-04T00:11:42.173Z,101744.59
2018-09-04T00:14:22.387Z,101741.09
2018-09-04T00:17:00.549Z,101738.05
2018-09-04T00:19:38.376Z,101740.74
2018-09-04T00:22:18.510Z,101738.52
2018-09-04T00:24:56.796Z,101736.27
2018-09-04T00:27:34.665Z,101737.10
2018-09-04T00:30:15.300Z,101736.59
2018-09-04T00:32:52.787Z,101740.03
2018-09-04T00:35:31.766Z,101740.88
2018-09-04T00:38:08.635Z,101734.66
2018-09-04T00:40:45.522Z,101738.65
2018-09-04T00:43:21.622Z,101739.98
2018-09-04T00:45:59.491Z,101735.06
2018-09-04T00:48:29.262Z,101731.99
2018-09-04T00:50:59.881Z,101741.72
2018-09-04T00:53:29.217Z,101738.13
2018-09-04T00:55:59.073Z,101739.00
2018-09-04T00:58:28.595Z,101732.80
2018-09-04T01:00:57.952Z,101737.17
2018-09-04T01:03:27.607Z,101733.62
2018-09-04T01:05:57.029Z,101732.66
2018-09-04T01:08:26.427Z,101738.86
2018-09-04T01:10:55.862Z,101734.38
2018-09-04T01:13:25.208Z,101733.50
2018-09-04T01:15:54.552Z,101729.52
2018-09-04T01:18:23.893Z,101736.17
2018-09-04T01:20:53.581Z,101734.84
2018-09-04T01:23:22.948Z,101739.70
2018-09-04T01:25:52.364Z,101741.44
2018-09-04T01:28:21.715Z,101742.77
2018-09-04T01:30:51.162Z,101742.77
2018-09-04T01:33:20.509Z,101743.23
2018-09-04T01:35:50.482Z,101735.30
2018-09-04T01:38:19.960Z,101739.78
2018-09-04T01:40:49.459Z,101735.41
2018-09-04T01:43:18.852Z,101739.45
2018-09-04T01:45:48.264Z,101740.03
2018-09-04T01:48:17.638Z,101737.95
2018-09-04T01:50:47.896Z,101737.59
2018-09-04T01:53:17.257Z,101742.13
2018-09-04T01:55:46.649Z,101747.56
2018-09-04T01:58:15.999Z,101755.59
2018-09-04T02:00:45.444Z,101751.25
2018-09-04T02:03:14.814Z,101744.22
2018-09-04T02:05:44.310Z,101742.48
2018-09-04T02:08:13.689Z,101738.54
2018-09-04T02:10:43.085Z,101740.80
2018-09-04T02:13:12.405Z,101741.25
2018-09-04T02:15:42.135Z,101744.34
2018-09-04T02:18:12.558Z,101745.25
2018-09-04T02:20:42.156Z,101741.74
2018-09-04T02:23:11.687Z,101738.21
2018-09-04T02:25:41.312Z,101739.97
2018-09-04T02:28:10.717Z,101748.86
2018-09-04T02:30:40.157Z,101743.12
2018-09-04T02:33:09.609Z,101742.33
2018-09-04T02:35:39.005Z,101739.72
2018-09-04T02:38:08.894Z,101730.11
2018-09-04T02:40:42.963Z,101737.22
2018-09-04T02:43:12.527Z,101738.19
2018-09-04T02:45:42.174Z,101740.47
2018-09-04T02:48:12.837Z,101740.08
2018-09-04T02:50:42.286Z,101741.07
2018-09-04T02:53:11.681Z,101739.73
2018-09-04T02:55:41.209Z,101735.36
2018-09-04T02:58:10.850Z,101734.52
2018-09-04T03:00:41.442Z,101744.75
2018-09-04T03:03:10.815Z,101750.50
2018-09-04T03:05:40.202Z,101740.38
2018-09-04T03:08:09.662Z,101743.06
2018-09-04T03:10:39.048Z,101734.21
2018-09-04T03:13:08.425Z,101740.42
2018-09-04T03:15:37.880Z,101737.81
2018-09-04T03:18:07.318Z,101733.41
2018-09-04T03:20:36.709Z,101740.05
2018-09-04T03:23:06.238Z,101741.84
2018-09-04T03:25:35.581Z,101747.19
2018-09-04T03:28:06.198Z,101745.87
2018-09-04T03:30:35.700Z,101742.75
2018-09-04T03:33:06.364Z,101744.09
2018-09-04T03:35:36.155Z,101748.09
2018-09-04T03:38:06.814Z,101746.77
2018-09-04T03:40:36.209Z,101751.22
2018-09-04T03:43:06.581Z,101751.22
2018-09-04T03:45:35.980Z,101756.06
2018-09-04T03:48:06.865Z,101751.67
2018-09-04T03:50:36.224Z,101753.88
2018-09-04T03:53:06.455Z,101757.45
2018-09-04T03:55:35.878Z,101760.11
2018-09-04T03:58:06.631Z,101756.98
2018-09-04T04:00:37.727Z,101760.11
2018-09-04T04:03:07.261Z,101760.59
2018-09-04T04:05:37.046Z,101760.59
2018-09-04T04:08:06.500Z,101754.42
2018-09-04T04:10:35.879Z,101757.10
2018-09-04T04:13:06.294Z,101756.26
2018-09-04T04:15:35.766Z,101755.45
2018-09-04T04:18:06.750Z,101756.83
2018-09-04T04:20:37.275Z,101755.11
2018-09-04T04:23:07.245Z,101754.74
2018-09-04T04:25:36.740Z,101756.59
2018-09-04T04:28:06.125Z,101752.22
2018-09-04T04:30:36.444Z,101755.81
2018-09-04T04:33:10.927Z,101757.66
2018-09-04T04:35:40.268Z,101758.67
2018-09-04T04:38:09.622Z,101762.73
2018-09-04T04:40:39.213Z,101759.70
2018-09-04T04:43:09.330Z,101757.55
2018-09-04T04:45:39.994Z,101763.38
2018-09-04T04:48:09.401Z,101759.88
2018-09-04T04:50:38.849Z,101770.58
2018-09-04T04:53:08.284Z,101767.53
2018-09-04T04:55:38.511Z,101765.80
2018-09-04T04:58:07.970Z,101765.88
2018-09-04T05:00:37.351Z,101767.23
2018-09-04T05:03:06.743Z,101765.50
2018-09-04T05:05:36.165Z,101763.33
2018-09-04T05:08:06.524Z,101767.32
2018-09-04T05:10:36.003Z,101771.77
2018-09-04T05:13:07.071Z,101774.88
2018-09-04T05:15:36.741Z,101778.87
2018-09-04T05:18:06.341Z,101773.16
2018-09-04T05:20:35.762Z,101774.89
2018-09-04T05:23:06.394Z,101781.05
2018-09-04T05:25:36.209Z,101784.12
2018-09-04T05:28:06.225Z,101780.53
2018-09-04T05:30:35.731Z,101781.38
2018-09-04T05:33:11.634Z,101775.59
2018-09-04T05:35:47.892Z,101775.53
2018-09-04T05:38:17.677Z,101781.28
2018-09-04T05:40:47.045Z,101783.89
2018-09-04T05:43:20.610Z,101787.39
2018-09-04T05:45:50.036Z,101793.14
2018-09-04T05:48:19.406Z,101787.77
2018-09-04T05:50:49.757Z,101787.28
2018-09-04T05:53:19.114Z,101789.87
2018-09-04T05:55:48.486Z,101789.39
2018-09-04T05:58:17.854Z,101795.50
2018-09-04T06:00:49.677Z,101792.81
2018-09-04T06:03:19.106Z,101792.75
2018-09-04T06:05:48.443Z,101799.77
2018-09-04T06:08:17.895Z,101806.33
2018-09-04T06:10:47.321Z,101804.91
2018-09-04T06:13:16.699Z,101806.53
2018-09-04T06:15:46.234Z,101802.38
2018-09-04T06:18:15.610Z,101806.48
2018-09-04T06:20:44.993Z,101807.67
2018-09-04T06:23:15.821Z,101808.42
2018-09-04T06:25:45.775Z,101808.77
2018-09-04T06:28:18.841Z,101808.22
2018-09-04T06:30:48.290Z,101800.19
2018-09-04T06:33:17.719Z,101808.87
2018-09-04T06:35:47.267Z,101804.27
2018-09-04T06:38:18.082Z,101804.58
2018-09-04T06:40:48.009Z,101803.14
2018-09-04T06:43:17.385Z,101798.18
2018-09-04T06:45:47.056Z,101797.59
2018-09-04T06:48:16.424Z,101800.58
2018-09-04T06:50:47.619Z,101803.46
2018-09-04T06:53:17.029Z,101803.74
2018-09-04T06:55:46.484Z,101811.13
2018-09-04T06:58:15.849Z,101809.75
2018-09-04T07:00:45.291Z,101812.35
2018-09-04T07:03:15.365Z,101809.58
2018-09-04T07:05:44.776Z,101804.98
2018-09-04T07:08:14.122Z,101807.97
2018-09-04T07:10:44.780Z,101807.85
2018-09-04T07:13:14.766Z,101807.71
2018-09-04T07:15:44.381Z,101802.55
2018-09-04T07:18:13.802Z,101811.05
2018-09-04T07:20:43.175Z,101813.32
2018-09-04T07:23:12.846Z,101815.98
2018-09-04T07:25:42.932Z,101811.41
2018-09-04T07:28:12.269Z,101803.23
2018-09-04T07:30:42.421Z,101798.17
2018-09-04T07:33:11.937Z,101796.80
2018-09-04T07:35:43.652Z,101799.83
2018-09-04T07:38:13.042Z,101799.42
2018-09-04T07:40:43.066Z,101799.44
2018-09-04T07:43:12.700Z,101803.97
2018-09-04T07:45:42.147Z,101802.83
2018-09-04T07:48:11.517Z,101803.65
2018-09-04T07:50:41.661Z,101811.39
2018-09-04T07:53:11.081Z,101801.36
2018-09-04T07:55:41.476Z,101806.51
2018-09-04T07:58:10.851Z,101805.95
2018-09-04T08:00:40.213Z,101803.12
2018-09-04T08:03:09.559Z,101803.86
2018-09-04T08:05:39.005Z,101802.72
2018-09-04T08:08:08.602Z,101801.48
2018-09-04T08:10:38.219Z,101804.52
2018-09-04T08:13:08.204Z,101811.72
2018-09-04T08:15:38.010Z,101809.64
2018-09-04T08:18:07.966Z,101810.34
2018-09-04T08:20:37.449Z,101814.82
2018-09-04T08:23:08.289Z,101816.67
2018-09-04T08:25:37.697Z,101823.75
2018-09-04T08:28:07.112Z,101822.05
2018-09-04T08:30:39.753Z,101821.34
2018-09-04T08:33:09.185Z,101818.88
2018-09-04T08:35:38.615Z,101810.89
2018-09-04T08:38:07.958Z,101811.84
2018-09-04T08:40:37.317Z,101812.71
2018-09-04T08:43:07.183Z,101809.16
2018-09-04T08:45:36.643Z,101810.64
2018-09-04T08:48:11.453Z,101813.13
2018-09-04T08:50:40.931Z,101817.83
2018-09-04T08:53:11.331Z,101816.45
2018-09-04T08:55:40.922Z,101810.14
2018-09-04T08:58:10.334Z,101814.40
2018-09-04T09:00:40.563Z,101814.84
2018-09-04T09:03:09.938Z,101811.16
2018-09-04T09:05:39.325Z,101807.66
2018-09-04T09:08:08.930Z,101818.72
2018-09-04T09:10:38.431Z,101809.02
2018-09-04T09:13:07.802Z,101819.58
2018-09-04T09:15:37.157Z,101821.06
2018-09-04T09:18:09.686Z,101822.27
2018-09-04T09:20:39.843Z,101815.69
2018-09-04T09:23:09.294Z,101818.28
2018-09-04T09:25:38.694Z,101816.81
2018-09-04T09:28:08.405Z,101811.38
2018-09-04T09:30:37.813Z,101808.50
2018-09-04T09:33:07.366Z,101796.44
2018-09-04T09:35:37.162Z,101802.76
2018-09-04T09:38:06.638Z,101794.66
2018-09-04T09:40:36.021Z,101793.89
2018-09-04T09:43:06.787Z,101791.69
2018-09-04T09:45:36.616Z,101791.27
2018-09-04T09:48:06.624Z,101791.58
2018-09-04T09:50:36.082Z,101790.77
2018-09-04T09:53:06.330Z,101787.88
2018-09-04T09:55:35.687Z,101791.66
2018-09-04T09:58:06.333Z,101792.72
2018-09-04T10:00:41.073Z,101798.71
2018-09-04T10:03:15.627Z,101795.64
2018-09-04T10:05:45.071Z,101801.03
2018-09-04T10:08:14.589Z,101797.41
2018-09-04T10:10:44.087Z,101788.33
2018-09-04T10:13:13.564Z,101784.74
2018-09-04T10:15:43.113Z,101777.27
2018-09-04T10:18:12.721Z,101785.13
2018-09-04T10:20:42.271Z,101779.19
2018-09-04T10:23:11.742Z,101775.95
2018-09-04T10:25:41.570Z,101779.83
2018-09-04T10:28:11.007Z,101780.84
2018-09-04T10:30:40.436Z,101781.02
2018-09-04T10:33:09.903Z,101777.27
2018-09-04T10:35:39.353Z,101776.81
2018-09-04T10:38:08.727Z,101780.58
2018-09-04T10:40:40.409Z,101773.05
2018-09-04T10:43:09.718Z,101770.20
2018-09-04T10:45:44.172Z,101773.38
2018-09-04T10:48:20.548Z,101768.85
2018-09-04T10:50:49.942Z,101766.91
2018-09-04T10:53:19.408Z,101760.41
2018-09-04T10:55:49.076Z,101768.59
2018-09-04T10:58:18.312Z,101768.20
2018-09-04T11:00:47.701Z,101767.69
2018-09-04T11:03:17.299Z,101770.45
2018-09-04T11:05:47.647Z,101765.81
2018-09-04T11:08:16.999Z,101763.69
2018-09-04T11:10:46.445Z,101760.36
2018-09-04T11:13:16.070Z,101760.41
2018-09-04T11:15:45.466Z,101763.08
2018-09-04T11:18:14.887Z,101769.16
2018-09-04T11:20:45.461Z,101759.71
2018-09-04T11:23:14.890Z,101764.36
2018-09-04T11:25:44.342Z,101760.47
2018-09-04T11:28:13.868Z,101760.38
2018-09-04T11:30:43.417Z,101760.06
2018-09-04T11:33:12.805Z,101762.91
2018-09-04T11:35:42.316Z,101763.27
2018-09-04T11:38:11.766Z,101768.87
2018-09-04T11:40:41.368Z,101765.69
2018-09-04T11:43:10.770Z,101761.09
2018-09-04T11:45:42.540Z,101759.98
2018-09-04T11:48:16.006Z,101765.86
2018-09-04T11:50:45.625Z,101767.41
2018-09-04T11:53:15.024Z,101759.11
2018-09-04T11:55:44.388Z,101762.23
2018-09-04T11:58:13.742Z,101757.55
2018-09-04T12:00:45.121Z,101761.55
2018-09-04T12:03:15.733Z,101763.99
2018-09-04T12:05:45.131Z,101756.28
2018-09-04T12:08:15.221Z,101757.67
2018-09-04T12:10:45.254Z,101757.21
2018-09-04T12:13:18.790Z,101755.42
2018-09-04T12:15:48.181Z,101754.77
2018-09-04T12:18:17.640Z,101756.64
2018-09-04T12:20:48.547Z,101755.84
2018-09-04T12:23:18.321Z,101762.96
2018-09-04T12:25:49.113Z,101757.61
2018-09-04T12:28:18.529Z,101755.87
2018-09-04T12:30:48.014Z,101763.09
2018-09-04T12:33:17.483Z,101757.13
2018-09-04T12:35:47.439Z,101750.84
2018-09-04T12:38:19.194Z,101749.08
2018-09-04T12:40:49.054Z,101749.03
2018-09-04T12:43:18.483Z,101742.17
2018-09-04T12:45:49.755Z,101744.48
2018-09-04T12:48:31.882Z,101747.00
2018-09-04T12:51:03.061Z,101749.73
2018-09-04T12:53:34.149Z,101748.13
2018-09-04T12:56:03.604Z,101743.73
2018-09-04T12:58:32.992Z,101740.73
2018-09-04T13:01:02.633Z,101741.45
2018-09-04T13:03:32.090Z,101738.72
2018-09-04T13:06:01.479Z,101745.54
2018-09-04T13:08:33.109Z,101745.53
2018-09-04T13:11:02.506Z,101744.25
2018-09-04T13:13:32.122Z,101745.87
2018-09-04T13:16:01.891Z,101744.84
2018-09-04T13:18:32.400Z,101737.82
2018-09-04T13:21:04.820Z,101742.69
2018-09-04T13:23:36.016Z,101748.86
2018-09-04T13:26:07.181Z,101742.81
2018-09-04T13:28:36.641Z,101737.17
2018-09-04T13:31:06.259Z,101738.94
2018-09-04T13:33:36.382Z,101738.91
2018-09-04T13:36:06.355Z,101733.12
2018-09-04T13:38:35.946Z,101736.95
2018-09-04T13:41:09.758Z,101734.06
2018-09-04T13:43:40.063Z,101735.20
2018-09-04T13:46:09.430Z,101737.41
2018-09-04T13:48:38.878Z,101736.52
2018-09-04T13:51:08.857Z,101734.41
2018-09-04T13:53:38.274Z,101732.65
2018-09-04T13:56:07.745Z,101734.42
2018-09-04T13:58:37.318Z,101734.90
2018-09-04T14:01:06.789Z,101737.79
2018-09-04T14:03:36.158Z,101737.29
2018-09-04T14:06:07.275Z,101734.49
2018-09-04T14:08:36.666Z,101739.66
2018-09-04T14:11:06.772Z,101738.23
2018-09-04T14:13:36.150Z,101735.37
2018-09-04T14:16:10.457Z,101731.31
2018-09-04T14:18:42.118Z,101730.20
2018-09-04T14:21:12.210Z,101733.86
2018-09-04T14:23:41.614Z,101728.55
2018-09-04T14:26:11.818Z,101732.90
2018-09-04T14:28:41.817Z,101723.82
2018-09-04T14:31:11.145Z,101723.09
2018-09-04T14:33:40.756Z,101720.48
2018-09-04T14:36:10.187Z,101721.16
2018-09-04T14:38:40.483Z,101721.55
2018-09-04T14:41:09.894Z,101722.82
2018-09-04T14:43:39.866Z,101725.70
2018-09-04T14:46:09.551Z,101725.84
2018-09-04T14:48:39.011Z,101722.06
2018-09-04T14:51:08.438Z,101732.41
2018-09-04T14:53:38.768Z,101735.60
2018-09-04T14:56:09.371Z,101734.00
2018-09-04T14:58:38.863Z,101735.13
2018-09-04T15:01:08.334Z,101740.41
2018-09-04T15:03:37.768Z,101737.75
2018-09-04T15:06:07.271Z,101736.63
2018-09-04T15:08:36.781Z,101735.10
2018-09-04T15:11:09.497Z,101737.11
2018-09-04T15:13:38.948Z,101737.14
2018-09-04T15:16:08.462Z,101728.21
2018-09-04T15:18:37.911Z,101725.93
2018-09-04T15:21:08.853Z,101726.80
2018-09-04T15:23:38.380Z,101720.47
2018-09-04T15:26:08.069Z,101719.04
2018-09-04T15:28:37.506Z,101722.83
2018-09-04T15:31:06.994Z,101717.38
2018-09-04T15:33:36.478Z,101720.15
2018-09-04T15:36:06.484Z,101710.45
2018-09-04T15:38:36.057Z,101713.20
2018-09-04T15:41:09.244Z,101718.33
2018-09-04T15:46:12.566Z,101714.86
2018-09-04T15:48:42.715Z,101722.01
2018-09-04T15:51:12.364Z,101712.94
2018-09-04T15:53:41.727Z,101726.59
2018-09-04T15:56:11.172Z,101721.81
2018-09-04T15:58:40.691Z,101727.87
2018-09-04T16:01:10.340Z,101725.27
2018-09-04T16:03:39.878Z,101726.44
2018-09-04T16:06:09.380Z,101727.81
2018-09-04T16:08:38.990Z,101725.15
2018-09-04T16:11:12.226Z,101728.08
2018-09-04T16:13:41.775Z,101727.23
2018-09-04T16:16:11.226Z,101719.42
2018-09-04T16:18:40.702Z,101729.16
2018-09-04T16:21:11.181Z,101723.16
2018-09-04T16:23:40.853Z,101716.91
2018-09-04T16:26:10.499Z,101712.94
2018-09-04T16:28:40.036Z,101712.50
2018-09-04T16:31:09.538Z,101712.22
2018-09-04T16:33:46.282Z,101717.09
2018-09-04T16:36:16.257Z,101717.18
2018-09-04T16:38:45.766Z,101720.18
2018-09-04T16:41:15.262Z,101715.28
2018-09-04T16:43:44.778Z,101718.28
2018-09-04T16:46:14.277Z,101723.48
2018-09-04T16:48:43.766Z,101727.38
2018-09-04T16:51:13.296Z,101726.52
2018-09-04T16:53:43.287Z,101729.68
2018-09-04T16:56:13.486Z,101726.16
2018-09-04T16:58:44.260Z,101721.05
2018-09-04T17:01:14.385Z,101730.59
2018-09-04T17:03:43.793Z,101734.19
2018-09-04T17:06:13.232Z,101729.28
2018-09-04T17:08:42.968Z,101729.12
2018-09-04T17:11:12.506Z,101729.41
2018-09-04T17:13:42.011Z,101732.95
2018-09-04T17:16:11.545Z,101736.59
2018-09-04T17:18:40.993Z,101728.34
2018-09-04T17:21:10.718Z,101732.55
2018-09-04T17:23:41.267Z,101734.38
2018-09-04T17:26:10.751Z,101739.67
2018-09-04T17:28:40.830Z,101742.07
2018-09-04T17:31:10.331Z,101744.78
2018-09-04T17:33:39.851Z,101747.86
2018-09-04T17:36:09.404Z,101752.27
2018-09-04T17:38:38.856Z,101750.25
2018-09-04T17:41:08.327Z,101756.83
2018-09-04T17:43:37.853Z,101751.90
2018-09-04T17:46:07.958Z,101750.28
2018-09-04T17:48:37.413Z,101752.87
2018-09-04T17:51:07.072Z,101756.73
2018-09-04T17:53:36.678Z,101764.09
2018-09-04T17:56:06.492Z,101772.02
2018-09-04T17:58:37.238Z,101776.44
2018-09-04T18:01:06.820Z,101771.09
2018-09-04T18:03:36.313Z,101790.30
2018-09-04T18:06:06.542Z,101792.30
2018-09-04T18:08:36.150Z,101798.89
2018-09-04T18:11:06.192Z,101799.19
2018-09-04T18:13:39.371Z,101800.38
2018-09-04T18:16:08.859Z,101804.97
2018-09-04T18:18:38.350Z,101801.95
2018-09-04T18:21:07.758Z,101806.73
2018-09-04T18:23:37.317Z,101813.05
2018-09-04T18:26:07.167Z,101813.13
2018-09-04T18:28:51.496Z,101813.95
2018-09-04T18:31:22.626Z,101819.70
2018-09-04T18:33:52.667Z,101819.41
2018-09-04T18:36:22.304Z,101825.50
2018-09-04T18:38:51.834Z,101819.38
2018-09-04T18:41:21.262Z,101824.96
2018-09-04T18:43:50.685Z,101823.80
2018-09-04T18:46:20.086Z,101830.53
2018-09-04T18:48:49.594Z,101835.00
2018-09-04T18:51:19.088Z,101834.52
2018-09-04T18:53:48.587Z,101848.44
2018-09-04T18:56:18.011Z,101843.69
2018-09-04T18:59:44.776Z,101843.59
2018-09-04T19:02:14.289Z,101847.69
2018-09-04T19:04:43.922Z,101845.16
2018-09-04T19:07:13.374Z,101851.34
2018-09-04T19:09:43.011Z,101845.86
2018-09-04T19:12:13.389Z,101844.80
2018-09-04T19:14:42.815Z,101851.73
2018-09-04T19:17:13.237Z,101852.34
2018-09-04T19:19:43.434Z,101853.11
2018-09-04T19:22:12.961Z,101855.54
2018-09-04T19:24:42.426Z,101852.94
2018-09-04T19:27:11.935Z,101854.17
2018-09-04T19:29:41.447Z,101859.81
2018-09-04T19:32:10.891Z,101856.95
2018-09-04T19:34:40.317Z,101860.37
2018-09-04T19:37:09.709Z,101863.80
2018-09-04T19:39:39.257Z,101864.98
2018-09-04T19:42:08.669Z,101858.61
2018-09-04T19:44:38.090Z,101861.98
2018-09-04T19:47:07.443Z,101867.05
2018-09-04T19:49:39.245Z,101868.17
2018-09-04T19:52:09.237Z,101877.79
2018-09-04T19:54:40.707Z,101875.48
2018-09-04T19:57:10.417Z,101881.00
2018-09-04T19:59:39.974Z,101880.35
2018-09-04T20:02:09.488Z,101886.30
2018-09-04T20:04:38.903Z,101882.04
2018-09-04T20:07:08.476Z,101882.17
2018-09-04T20:09:37.960Z,101885.92
2018-09-04T20:12:07.745Z,101887.09
2018-09-04T20:14:37.115Z,101889.43
2018-09-04T20:17:06.579Z,101891.36
2018-09-04T20:19:36.267Z,101893.30
2018-09-04T20:22:09.846Z,101900.50
2018-09-04T20:24:39.222Z,101899.70
2018-09-04T20:27:08.676Z,101896.29
2018-09-04T20:29:38.152Z,101898.22
2018-09-04T20:32:07.550Z,101896.08
2018-09-04T20:34:36.983Z,101901.14
2018-09-04T20:37:06.548Z,101898.63
2018-09-04T20:39:36.022Z,101900.12
2018-09-04T20:42:06.593Z,101898.91
2018-09-04T20:44:40.007Z,101902.19
2018-09-04T20:47:09.431Z,101909.91
2018-09-04T20:49:39.151Z,101906.92
2018-09-04T20:52:09.478Z,101909.70
2018-09-04T20:54:39.030Z,101904.92
2018-09-04T20:57:41.811Z,101911.23
2018-09-04T21:00:27.958Z,101910.58
2018-09-04T21:03:14.139Z,101904.02
2018-09-04T21:06:00.260Z,101901.50
2018-09-04T21:08:43.426Z,101897.66
2018-09-04T21:11:13.570Z,101907.63
2018-09-04T21:13:42.973Z,101905.55
2018-09-04T21:16:13.410Z,101906.99
2018-09-04T21:18:42.746Z,101911.58
2018-09-04T21:21:14.424Z,101913.05
2018-09-04T21:23:43.787Z,101914.04
2018-09-04T21:26:13.124Z,101911.94
2018-09-04T21:28:42.594Z,101909.00
2018-09-04T21:31:12.865Z,101915.70
2018-09-04T21:33:42.341Z,101918.00
2018-09-04T21:36:11.943Z,101913.84
2018-09-04T21:38:41.395Z,101913.52
2018-09-04T21:41:12.046Z,101910.52
2018-09-04T21:43:41.358Z,101911.95
2018-09-04T21:46:10.770Z,101907.59
2018-09-04T21:48:40.084Z,101908.61
2018-09-04T21:51:09.512Z,101909.11
2018-09-04T21:53:38.895Z,101906.06
2018-09-04T21:56:08.278Z,101908.41
2018-09-04T21:58:37.755Z,101915.97
2018-09-04T22:01:07.615Z,101916.98
2018-09-04T22:03:37.148Z,101924.09
2018-09-04T22:06:06.661Z,101923.70
2018-09-04T22:08:36.006Z,101925.08
2018-09-04T22:11:06.011Z,101922.05
2018-09-04T22:13:35.556Z,101928.30
2018-09-04T22:16:06.979Z,101923.92
2018-09-04T22:18:36.707Z,101918.28
2018-09-04T22:21:06.530Z,101921.44
2018-09-04T22:23:36.187Z,101921.06
2018-09-04T22:26:07.007Z,101922.48
2018-09-04T22:28:37.153Z,101918.58
2018-09-04T22:31:06.843Z,101911.17
2018-09-04T22:33:36.631Z,101920.10
2018-09-04T22:36:07.433Z,101914.41
2018-09-04T22:38:37.479Z,101910.91
2018-09-04T22:41:08.274Z,101914.50
2018-09-04T22:43:38.043Z,101907.92
2018-09-04T22:46:07.974Z,101907.54
2018-09-04T22:48:37.418Z,101908.95
2018-09-04T22:51:11.852Z,101910.77
2018-09-04T22:53:45.281Z,101911.74
2018-09-04T22:56:14.678Z,101916.66
2018-09-04T22:58:44.034Z,101918.48
2018-09-04T23:01:13.525Z,101922.52
2018-09-04T23:03:43.938Z,101921.66
2018-09-04T23:06:13.343Z,101926.59
2018-09-04T23:08:42.729Z,101927.95
2018-09-04T23:11:12.310Z,101927.14
2018-09-04T23:13:41.725Z,101919.71
2018-09-04T23:16:11.086Z,101924.55
2018-09-04T23:18:40.491Z,101925.49
2018-09-04T23:21:09.850Z,101922.45
2018-09-04T23:23:40.084Z,101926.03
2018-09-04T23:26:09.442Z,101925.21
2018-09-04T23:28:38.842Z,101917.34
2018-09-04T23:31:08.926Z,101931.47
2018-09-04T23:33:38.388Z,101931.48
2018-09-04T23:36:08.058Z,101927.09
2018-09-04T23:38:37.467Z,101923.16
2018-09-04T23:41:07.782Z,101921.39
2018-09-04T23:43:37.184Z,101927.59
2018-09-04T23:46:06.561Z,101928.05
2018-09-04T23:48:37.008Z,101933.38
2018-09-04T23:51:06.456Z,101931.19
2018-09-04T23:53:35.870Z,101935.66
2018-09-04T23:56:07.277Z,101926.23
2018-09-04T23:58:36.613Z,101935.09
